sensor_id;sensor_type;location;lat;lon;timestamp;P1;durP1;ratioP1;P2;durP2;ratioP2
35644;SDS011;21764;52.042;6.830;2023-07-13T00:04:34;19.25;;;4.35;;
35644;SDS011;21764;52.042;6.830;2023-07-13T00:09:36;19.52;;;3.25;;
35644;SDS011;21764;52.042;6.830;2023-07-13T00:14:36;16.15;;;3.95;;
35644;SDS011;21764;52.042;6.830;2023-07-13T00:19:37;12.82;;;3.60;;
35644;SDS011;21764;52.042;6.830;2023-07-13T00:24:38;22.17;;;3.40;;
35644;SDS011;21764;52.042;6.830;2023-07-13T00:29:41;19.58;;;3.90;;
35644;SDS011;21764;52.042;6.830;2023-07-13T00:34:42;19.95;;;3.88;;
35644;SDS011;21764;52.042;6.830;2023-07-13T00:39:43;16.98;;;4.10;;
35644;SDS011;21764;52.042;6.830;2023-07-13T00:50:20;15.98;;;4.07;;
35644;SDS011;21764;52.042;6.830;2023-07-13T00:55:22;16.00;;;4.05;;
35644;SDS011;21764;52.042;6.830;2023-07-13T01:00:23;14.00;;;4.07;;
35644;SDS011;21764;52.042;6.830;2023-07-13T01:05:26;12.93;;;3.33;;
35644;SDS011;21764;52.042;6.830;2023-07-13T01:10:27;22.52;;;4.47;;
35644;SDS011;21764;52.042;6.830;2023-07-13T01:20:38;16.67;;;3.60;;
35644;SDS011;21764;52.042;6.830;2023-07-13T01:25:39;11.05;;;3.88;;
35644;SDS011;21764;52.042;6.830;2023-07-13T01:30:40;15.07;;;3.78;;
35644;SDS011;21764;52.042;6.830;2023-07-13T01:35:40;11.25;;;3.53;;
35644;SDS011;21764;52.042;6.830;2023-07-13T01:40:41;15.48;;;3.70;;
35644;SDS011;21764;52.042;6.830;2023-07-13T01:45:42;22.95;;;3.92;;
35644;SDS011;21764;52.042;6.830;2023-07-13T01:50:44;16.90;;;4.03;;
35644;SDS011;21764;52.042;6.830;2023-07-13T01:55:45;15.65;;;3.65;;
35644;SDS011;21764;52.042;6.830;2023-07-13T02:00:47;18.65;;;4.03;;
35644;SDS011;21764;52.042;6.830;2023-07-13T02:05:49;12.88;;;3.40;;
35644;SDS011;21764;52.042;6.830;2023-07-13T02:10:50;14.95;;;3.67;;
35644;SDS011;21764;52.042;6.830;2023-07-13T02:15:51;15.95;;;3.92;;
35644;SDS011;21764;52.042;6.830;2023-07-13T02:20:52;13.65;;;3.47;;
35644;SDS011;21764;52.042;6.830;2023-07-13T02:25:56;16.38;;;3.75;;
35644;SDS011;21764;52.042;6.830;2023-07-13T02:31:03;13.18;;;3.70;;
35644;SDS011;21764;52.042;6.830;2023-07-13T02:36:05;20.85;;;4.13;;
35644;SDS011;21764;52.042;6.830;2023-07-13T02:41:07;13.88;;;4.13;;
35644;SDS011;21764;52.042;6.830;2023-07-13T02:46:09;18.17;;;4.03;;
35644;SDS011;21764;52.042;6.830;2023-07-13T02:51:09;11.48;;;3.47;;
35644;SDS011;21764;52.042;6.830;2023-07-13T02:56:10;16.05;;;4.00;;
35644;SDS011;21764;52.042;6.830;2023-07-13T03:01:11;15.13;;;3.83;;
35644;SDS011;21764;52.042;6.830;2023-07-13T03:06:12;17.00;;;4.22;;
35644;SDS011;21764;52.042;6.830;2023-07-13T03:11:15;11.23;;;3.55;;
35644;SDS011;21764;52.042;6.830;2023-07-13T03:16:18;12.27;;;3.60;;
35644;SDS011;21764;52.042;6.830;2023-07-13T03:21:18;9.57;;;3.67;;
35644;SDS011;21764;52.042;6.830;2023-07-13T03:26:19;18.35;;;3.80;;
35644;SDS011;21764;52.042;6.830;2023-07-13T03:31:21;8.48;;;2.90;;
35644;SDS011;21764;52.042;6.830;2023-07-13T03:36:26;13.43;;;4.03;;
35644;SDS011;21764;52.042;6.830;2023-07-13T03:41:28;13.00;;;3.28;;
35644;SDS011;21764;52.042;6.830;2023-07-13T03:46:29;12.27;;;3.20;;
35644;SDS011;21764;52.042;6.830;2023-07-13T03:51:30;15.93;;;3.42;;
35644;SDS011;21764;52.042;6.830;2023-07-13T03:56:30;15.60;;;3.55;;
35644;SDS011;21764;52.042;6.830;2023-07-13T04:01:33;17.45;;;3.63;;
35644;SDS011;21764;52.042;6.830;2023-07-13T04:06:33;18.20;;;4.15;;
35644;SDS011;21764;52.042;6.830;2023-07-13T04:11:34;13.98;;;3.25;;
35644;SDS011;21764;52.042;6.830;2023-07-13T04:16:37;9.52;;;3.20;;
35644;SDS011;21764;52.042;6.830;2023-07-13T04:21:38;14.68;;;3.42;;
35644;SDS011;21764;52.042;6.830;2023-07-13T04:26:39;11.77;;;3.55;;
35644;SDS011;21764;52.042;6.830;2023-07-13T04:31:39;17.60;;;3.72;;
35644;SDS011;21764;52.042;6.830;2023-07-13T04:36:40;11.15;;;2.95;;
35644;SDS011;21764;52.042;6.830;2023-07-13T04:41:41;17.25;;;3.88;;
35644;SDS011;21764;52.042;6.830;2023-07-13T04:46:41;11.77;;;3.40;;
35644;SDS011;21764;52.042;6.830;2023-07-13T04:51:42;14.70;;;4.00;;
35644;SDS011;21764;52.042;6.830;2023-07-13T04:56:43;14.25;;;3.17;;
35644;SDS011;21764;52.042;6.830;2023-07-13T05:01:43;14.98;;;3.55;;
35644;SDS011;21764;52.042;6.830;2023-07-13T05:06:44;12.05;;;3.13;;
35644;SDS011;21764;52.042;6.830;2023-07-13T05:11:45;15.23;;;3.25;;
35644;SDS011;21764;52.042;6.830;2023-07-13T05:16:45;15.38;;;3.40;;
35644;SDS011;21764;52.042;6.830;2023-07-13T05:21:46;14.02;;;3.38;;
35644;SDS011;21764;52.042;6.830;2023-07-13T05:26:47;13.60;;;3.20;;
35644;SDS011;21764;52.042;6.830;2023-07-13T05:31:47;13.50;;;3.25;;
35644;SDS011;21764;52.042;6.830;2023-07-13T05:36:48;14.60;;;3.40;;
35644;SDS011;21764;52.042;6.830;2023-07-13T05:41:49;10.80;;;3.70;;
35644;SDS011;21764;52.042;6.830;2023-07-13T05:46:50;15.93;;;3.38;;
35644;SDS011;21764;52.042;6.830;2023-07-13T05:51:51;12.45;;;3.42;;
35644;SDS011;21764;52.042;6.830;2023-07-13T05:56:51;19.67;;;3.78;;
35644;SDS011;21764;52.042;6.830;2023-07-13T06:01:52;17.02;;;3.75;;
35644;SDS011;21764;52.042;6.830;2023-07-13T06:06:52;15.43;;;4.40;;
35644;SDS011;21764;52.042;6.830;2023-07-13T06:11:53;20.88;;;4.50;;
35644;SDS011;21764;52.042;6.830;2023-07-13T06:16:54;20.10;;;4.88;;
35644;SDS011;21764;52.042;6.830;2023-07-13T06:21:54;28.23;;;6.18;;
35644;SDS011;21764;52.042;6.830;2023-07-13T06:26:55;22.02;;;6.75;;
35644;SDS011;21764;52.042;6.830;2023-07-13T06:31:56;23.33;;;6.93;;
35644;SDS011;21764;52.042;6.830;2023-07-13T06:36:57;17.55;;;6.50;;
35644;SDS011;21764;52.042;6.830;2023-07-13T06:41:57;19.13;;;6.75;;
35644;SDS011;21764;52.042;6.830;2023-07-13T06:46:58;22.20;;;6.90;;
35644;SDS011;21764;52.042;6.830;2023-07-13T06:51:59;24.70;;;8.32;;
35644;SDS011;21764;52.042;6.830;2023-07-13T06:56:59;21.05;;;7.88;;
35644;SDS011;21764;52.042;6.830;2023-07-13T07:02:00;26.08;;;9.93;;
35644;SDS011;21764;52.042;6.830;2023-07-13T07:07:01;25.92;;;9.02;;
35644;SDS011;21764;52.042;6.830;2023-07-13T07:12:02;28.45;;;9.73;;
35644;SDS011;21764;52.042;6.830;2023-07-13T07:17:03;33.22;;;9.95;;
35644;SDS011;21764;52.042;6.830;2023-07-13T07:22:04;29.80;;;9.15;;
35644;SDS011;21764;52.042;6.830;2023-07-13T07:27:04;29.17;;;9.73;;
35644;SDS011;21764;52.042;6.830;2023-07-13T07:32:05;28.42;;;9.63;;
35644;SDS011;21764;52.042;6.830;2023-07-13T07:37:06;30.35;;;9.48;;
35644;SDS011;21764;52.042;6.830;2023-07-13T07:42:10;31.63;;;9.37;;
35644;SDS011;21764;52.042;6.830;2023-07-13T07:47:12;23.83;;;9.40;;
35644;SDS011;21764;52.042;6.830;2023-07-13T07:52:13;29.17;;;10.00;;
35644;SDS011;21764;52.042;6.830;2023-07-13T07:57:13;28.33;;;10.43;;
35644;SDS011;21764;52.042;6.830;2023-07-13T08:02:14;27.77;;;9.68;;
35644;SDS011;21764;52.042;6.830;2023-07-13T08:07:15;24.38;;;8.93;;
35644;SDS011;21764;52.042;6.830;2023-07-13T08:12:15;26.35;;;9.68;;
35644;SDS011;21764;52.042;6.830;2023-07-13T08:17:16;20.23;;;8.10;;
35644;SDS011;21764;52.042;6.830;2023-07-13T08:22:17;24.25;;;9.85;;
35644;SDS011;21764;52.042;6.830;2023-07-13T08:27:17;24.02;;;9.52;;
35644;SDS011;21764;52.042;6.830;2023-07-13T08:32:20;21.88;;;10.13;;
35644;SDS011;21764;52.042;6.830;2023-07-13T08:37:22;27.05;;;11.45;;
35644;SDS011;21764;52.042;6.830;2023-07-13T08:47:51;25.70;;;10.40;;
35644;SDS011;21764;52.042;6.830;2023-07-13T08:52:53;28.38;;;10.30;;
35644;SDS011;21764;52.042;6.830;2023-07-13T08:58:06;24.88;;;9.38;;
35644;SDS011;21764;52.042;6.830;2023-07-13T09:03:25;25.08;;;9.45;;
35644;SDS011;21764;52.042;6.830;2023-07-13T09:18:59;23.73;;;9.02;;
35644;SDS011;21764;52.042;6.830;2023-07-13T09:24:23;22.67;;;8.82;;
35644;SDS011;21764;52.042;6.830;2023-07-13T09:29:58;31.77;;;10.60;;
35644;SDS011;21764;52.042;6.830;2023-07-13T09:40:17;32.05;;;9.82;;
35644;SDS011;21764;52.042;6.830;2023-07-13T09:45:29;19.75;;;7.47;;
35644;SDS011;21764;52.042;6.830;2023-07-13T09:50:31;12.15;;;6.50;;
35644;SDS011;21764;52.042;6.830;2023-07-13T09:55:32;21.95;;;15.85;;
35644;SDS011;21764;52.042;6.830;2023-07-13T10:00:36;53.65;;;48.55;;
35644;SDS011;21764;52.042;6.830;2023-07-13T10:05:41;17.23;;;5.63;;
35644;SDS011;21764;52.042;6.830;2023-07-13T10:10:42;15.07;;;5.80;;
35644;SDS011;21764;52.042;6.830;2023-07-13T10:15:44;24.73;;;6.32;;
35644;SDS011;21764;52.042;6.830;2023-07-13T10:20:45;16.58;;;5.75;;
35644;SDS011;21764;52.042;6.830;2023-07-13T10:25:45;19.42;;;6.25;;
35644;SDS011;21764;52.042;6.830;2023-07-13T10:30:48;21.08;;;5.85;;
35644;SDS011;21764;52.042;6.830;2023-07-13T10:35:51;18.33;;;6.43;;
35644;SDS011;21764;52.042;6.830;2023-07-13T10:40:59;19.70;;;6.72;;
35644;SDS011;21764;52.042;6.830;2023-07-13T10:46:14;16.77;;;6.22;;
35644;SDS011;21764;52.042;6.830;2023-07-13T10:51:17;16.30;;;6.10;;
35644;SDS011;21764;52.042;6.830;2023-07-13T11:01:38;17.20;;;5.95;;
35644;SDS011;21764;52.042;6.830;2023-07-13T11:06:41;18.00;;;5.40;;
35644;SDS011;21764;52.042;6.830;2023-07-13T11:11:46;21.58;;;7.50;;
35644;SDS011;21764;52.042;6.830;2023-07-13T11:16:47;16.75;;;7.63;;
35644;SDS011;21764;52.042;6.830;2023-07-13T11:27:22;14.02;;;6.03;;
35644;SDS011;21764;52.042;6.830;2023-07-13T11:32:43;14.77;;;6.17;;
35644;SDS011;21764;52.042;6.830;2023-07-13T11:37:44;16.50;;;5.85;;
35644;SDS011;21764;52.042;6.830;2023-07-13T11:42:46;14.07;;;5.70;;
35644;SDS011;21764;52.042;6.830;2023-07-13T11:47:48;13.43;;;6.15;;
35644;SDS011;21764;52.042;6.830;2023-07-13T11:52:49;13.45;;;6.07;;
35644;SDS011;21764;52.042;6.830;2023-07-13T11:57:56;14.15;;;5.90;;
35644;SDS011;21764;52.042;6.830;2023-07-13T12:02:59;12.65;;;4.53;;
35644;SDS011;21764;52.042;6.830;2023-07-13T12:08:08;13.95;;;5.18;;
35644;SDS011;21764;52.042;6.830;2023-07-13T12:13:11;9.80;;;4.85;;
35644;SDS011;21764;52.042;6.830;2023-07-13T12:18:13;12.88;;;4.90;;
35644;SDS011;21764;52.042;6.830;2023-07-13T12:23:23;14.38;;;5.82;;
35644;SDS011;21764;52.042;6.830;2023-07-13T12:28:36;14.05;;;5.22;;
35644;SDS011;21764;52.042;6.830;2023-07-13T12:33:39;9.13;;;4.30;;
35644;SDS011;21764;52.042;6.830;2023-07-13T12:38:41;5.63;;;3.42;;
35644;SDS011;21764;52.042;6.830;2023-07-13T12:43:46;8.10;;;3.83;;
35644;SDS011;21764;52.042;6.830;2023-07-13T12:48:51;12.05;;;4.57;;
35644;SDS011;21764;52.042;6.830;2023-07-13T12:53:56;11.63;;;5.03;;
35644;SDS011;21764;52.042;6.830;2023-07-13T12:59:04;8.20;;;5.15;;
35644;SDS011;21764;52.042;6.830;2023-07-13T13:04:08;11.60;;;5.13;;
35644;SDS011;21764;52.042;6.830;2023-07-13T13:09:11;10.13;;;5.03;;
35644;SDS011;21764;52.042;6.830;2023-07-13T13:14:13;8.70;;;5.13;;
35644;SDS011;21764;52.042;6.830;2023-07-13T13:19:15;7.57;;;4.13;;
35644;SDS011;21764;52.042;6.830;2023-07-13T13:24:19;7.60;;;3.65;;
35644;SDS011;21764;52.042;6.830;2023-07-13T13:29:23;9.30;;;3.75;;
35644;SDS011;21764;52.042;6.830;2023-07-13T13:34:25;10.23;;;3.65;;
35644;SDS011;21764;52.042;6.830;2023-07-13T13:39:34;9.30;;;3.40;;
35644;SDS011;21764;52.042;6.830;2023-07-13T13:44:36;13.10;;;3.70;;
35644;SDS011;21764;52.042;6.830;2023-07-13T13:49:37;15.77;;;5.07;;
35644;SDS011;21764;52.042;6.830;2023-07-13T13:54:38;16.23;;;6.20;;
35644;SDS011;21764;52.042;6.830;2023-07-13T13:59:39;13.50;;;6.63;;
35644;SDS011;21764;52.042;6.830;2023-07-13T14:04:40;16.15;;;7.93;;
35644;SDS011;21764;52.042;6.830;2023-07-13T14:09:41;12.98;;;6.05;;
35644;SDS011;21764;52.042;6.830;2023-07-13T14:14:42;12.75;;;6.60;;
35644;SDS011;21764;52.042;6.830;2023-07-13T14:19:42;12.80;;;5.90;;
35644;SDS011;21764;52.042;6.830;2023-07-13T14:24:43;10.13;;;5.20;;
35644;SDS011;21764;52.042;6.830;2023-07-13T14:29:44;8.15;;;4.05;;
35644;SDS011;21764;52.042;6.830;2023-07-13T14:34:45;6.47;;;2.83;;
35644;SDS011;21764;52.042;6.830;2023-07-13T14:39:45;6.07;;;2.83;;
35644;SDS011;21764;52.042;6.830;2023-07-13T14:44:52;4.80;;;2.88;;
35644;SDS011;21764;52.042;6.830;2023-07-13T14:49:52;18.10;;;2.67;;
35644;SDS011;21764;52.042;6.830;2023-07-13T14:54:53;4.90;;;2.70;;
35644;SDS011;21764;52.042;6.830;2023-07-13T14:59:54;6.10;;;2.65;;
35644;SDS011;21764;52.042;6.830;2023-07-13T15:04:55;7.13;;;3.22;;
35644;SDS011;21764;52.042;6.830;2023-07-13T15:09:56;9.45;;;3.03;;
35644;SDS011;21764;52.042;6.830;2023-07-13T15:14:57;8.68;;;2.90;;
35644;SDS011;21764;52.042;6.830;2023-07-13T15:19:58;7.93;;;3.05;;
35644;SDS011;21764;52.042;6.830;2023-07-13T15:24:59;6.50;;;3.58;;
35644;SDS011;21764;52.042;6.830;2023-07-13T15:30:00;5.85;;;3.17;;
35644;SDS011;21764;52.042;6.830;2023-07-13T15:35:01;9.98;;;3.80;;
35644;SDS011;21764;52.042;6.830;2023-07-13T15:40:02;8.43;;;3.58;;
35644;SDS011;21764;52.042;6.830;2023-07-13T15:45:02;9.18;;;3.45;;
35644;SDS011;21764;52.042;6.830;2023-07-13T15:50:04;8.88;;;4.00;;
35644;SDS011;21764;52.042;6.830;2023-07-13T15:55:05;6.95;;;3.90;;
35644;SDS011;21764;52.042;6.830;2023-07-13T16:00:16;10.68;;;3.78;;
35644;SDS011;21764;52.042;6.830;2023-07-13T16:05:21;9.75;;;3.55;;
35644;SDS011;21764;52.042;6.830;2023-07-13T16:10:25;8.15;;;4.35;;
35644;SDS011;21764;52.042;6.830;2023-07-13T16:15:32;7.90;;;4.32;;
35644;SDS011;21764;52.042;6.830;2023-07-13T16:20:32;11.73;;;5.18;;
35644;SDS011;21764;52.042;6.830;2023-07-13T16:25:33;11.27;;;6.22;;
35644;SDS011;21764;52.042;6.830;2023-07-13T16:30:34;13.82;;;6.10;;
35644;SDS011;21764;52.042;6.830;2023-07-13T16:35:37;10.77;;;6.13;;
35644;SDS011;21764;52.042;6.830;2023-07-13T16:40:38;10.80;;;6.07;;
35644;SDS011;21764;52.042;6.830;2023-07-13T16:45:39;11.32;;;6.30;;
35644;SDS011;21764;52.042;6.830;2023-07-13T16:55:49;15.10;;;7.10;;
35644;SDS011;21764;52.042;6.830;2023-07-13T17:00:51;11.68;;;6.10;;
35644;SDS011;21764;52.042;6.830;2023-07-13T17:05:52;12.90;;;5.82;;
35644;SDS011;21764;52.042;6.830;2023-07-13T17:10:55;11.82;;;6.95;;
35644;SDS011;21764;52.042;6.830;2023-07-13T17:15:58;16.48;;;7.30;;
35644;SDS011;21764;52.042;6.830;2023-07-13T17:20:58;11.98;;;7.47;;
35644;SDS011;21764;52.042;6.830;2023-07-13T17:25:59;14.13;;;8.15;;
35644;SDS011;21764;52.042;6.830;2023-07-13T17:31:00;17.83;;;8.30;;
35644;SDS011;21764;52.042;6.830;2023-07-13T17:36:03;14.45;;;7.53;;
35644;SDS011;21764;52.042;6.830;2023-07-13T17:41:06;17.03;;;8.30;;
35644;SDS011;21764;52.042;6.830;2023-07-13T17:46:12;14.75;;;8.18;;
35644;SDS011;21764;52.042;6.830;2023-07-13T17:51:14;13.98;;;8.13;;
35644;SDS011;21764;52.042;6.830;2023-07-13T17:56:15;16.42;;;7.32;;
35644;SDS011;21764;52.042;6.830;2023-07-13T18:01:18;17.00;;;8.23;;
35644;SDS011;21764;52.042;6.830;2023-07-13T18:06:21;13.23;;;7.50;;
35644;SDS011;21764;52.042;6.830;2023-07-13T18:11:29;13.00;;;7.35;;
35644;SDS011;21764;52.042;6.830;2023-07-13T18:16:30;18.75;;;7.55;;
35644;SDS011;21764;52.042;6.830;2023-07-13T18:21:33;17.33;;;7.45;;
35644;SDS011;21764;52.042;6.830;2023-07-13T18:26:34;13.80;;;7.65;;
35644;SDS011;21764;52.042;6.830;2023-07-13T18:31:38;14.70;;;8.57;;
35644;SDS011;21764;52.042;6.830;2023-07-13T18:36:38;15.63;;;7.72;;
35644;SDS011;21764;52.042;6.830;2023-07-13T18:41:39;18.90;;;9.35;;
35644;SDS011;21764;52.042;6.830;2023-07-13T18:46:41;18.50;;;8.00;;
35644;SDS011;21764;52.042;6.830;2023-07-13T18:51:41;17.30;;;7.65;;
35644;SDS011;21764;52.042;6.830;2023-07-13T18:56:42;15.45;;;7.00;;
35644;SDS011;21764;52.042;6.830;2023-07-13T19:01:43;14.25;;;6.55;;
35644;SDS011;21764;52.042;6.830;2023-07-13T19:06:46;14.50;;;6.45;;
35644;SDS011;21764;52.042;6.830;2023-07-13T19:11:48;13.88;;;5.82;;
35644;SDS011;21764;52.042;6.830;2023-07-13T19:16:49;11.40;;;6.05;;
35644;SDS011;21764;52.042;6.830;2023-07-13T19:21:50;10.55;;;5.75;;
35644;SDS011;21764;52.042;6.830;2023-07-13T19:26:53;14.48;;;5.93;;
35644;SDS011;21764;52.042;6.830;2023-07-13T19:31:55;9.60;;;5.10;;
35644;SDS011;21764;52.042;6.830;2023-07-13T19:37:00;13.15;;;5.18;;
35644;SDS011;21764;52.042;6.830;2023-07-13T19:42:24;12.15;;;5.88;;
35644;SDS011;21764;52.042;6.830;2023-07-13T19:47:25;13.43;;;6.60;;
35644;SDS011;21764;52.042;6.830;2023-07-13T19:52:27;16.30;;;6.38;;
35644;SDS011;21764;52.042;6.830;2023-07-13T19:57:28;16.45;;;6.03;;
35644;SDS011;21764;52.042;6.830;2023-07-13T20:02:29;12.77;;;6.07;;
35644;SDS011;21764;52.042;6.830;2023-07-13T20:07:30;9.18;;;5.82;;
35644;SDS011;21764;52.042;6.830;2023-07-13T20:12:33;10.88;;;5.90;;
35644;SDS011;21764;52.042;6.830;2023-07-13T20:17:36;14.07;;;6.07;;
35644;SDS011;21764;52.042;6.830;2023-07-13T20:22:38;10.23;;;5.88;;
35644;SDS011;21764;52.042;6.830;2023-07-13T20:27:39;10.85;;;5.63;;
35644;SDS011;21764;52.042;6.830;2023-07-13T20:32:39;10.55;;;5.65;;
35644;SDS011;21764;52.042;6.830;2023-07-13T20:37:40;11.13;;;5.80;;
35644;SDS011;21764;52.042;6.830;2023-07-13T20:42:42;9.20;;;5.38;;
35644;SDS011;21764;52.042;6.830;2023-07-13T20:47:43;14.82;;;5.88;;
35644;SDS011;21764;52.042;6.830;2023-07-13T20:52:45;12.68;;;6.00;;
35644;SDS011;21764;52.042;6.830;2023-07-13T20:57:51;13.40;;;6.50;;
35644;SDS011;21764;52.042;6.830;2023-07-13T21:03:05;12.43;;;6.55;;
35644;SDS011;21764;52.042;6.830;2023-07-13T21:08:11;14.68;;;6.68;;
35644;SDS011;21764;52.042;6.830;2023-07-13T21:13:15;14.95;;;7.45;;
35644;SDS011;21764;52.042;6.830;2023-07-13T21:18:17;11.73;;;6.88;;
35644;SDS011;21764;52.042;6.830;2023-07-13T21:23:28;14.98;;;8.05;;
35644;SDS011;21764;52.042;6.830;2023-07-13T21:28:34;20.48;;;9.00;;
35644;SDS011;21764;52.042;6.830;2023-07-13T21:33:37;15.95;;;9.60;;
35644;SDS011;21764;52.042;6.830;2023-07-13T21:38:41;18.48;;;9.32;;
35644;SDS011;21764;52.042;6.830;2023-07-13T21:43:43;14.65;;;9.20;;
35644;SDS011;21764;52.042;6.830;2023-07-13T21:48:44;19.70;;;9.68;;
35644;SDS011;21764;52.042;6.830;2023-07-13T21:53:45;15.38;;;10.60;;
35644;SDS011;21764;52.042;6.830;2023-07-13T21:58:47;16.10;;;9.32;;
35644;SDS011;21764;52.042;6.830;2023-07-13T22:03:49;18.40;;;8.88;;
35644;SDS011;21764;52.042;6.830;2023-07-13T22:08:55;25.05;;;10.13;;
35644;SDS011;21764;52.042;6.830;2023-07-13T22:13:58;16.92;;;9.35;;
35644;SDS011;21764;52.042;6.830;2023-07-13T22:18:59;14.48;;;9.93;;
35644;SDS011;21764;52.042;6.830;2023-07-13T22:24:12;18.67;;;10.02;;
35644;SDS011;21764;52.042;6.830;2023-07-13T22:29:17;17.55;;;10.30;;
35644;SDS011;21764;52.042;6.830;2023-07-13T22:34:20;18.60;;;10.48;;
35644;SDS011;21764;52.042;6.830;2023-07-13T22:39:25;16.55;;;10.32;;
35644;SDS011;21764;52.042;6.830;2023-07-13T22:44:28;16.85;;;10.20;;
35644;SDS011;21764;52.042;6.830;2023-07-13T22:49:30;16.52;;;11.00;;
35644;SDS011;21764;52.042;6.830;2023-07-13T22:54:33;20.20;;;12.65;;
35644;SDS011;21764;52.042;6.830;2023-07-13T22:59:34;19.10;;;12.73;;
35644;SDS011;21764;52.042;6.830;2023-07-13T23:04:36;24.65;;;14.00;;
35644;SDS011;21764;52.042;6.830;2023-07-13T23:09:36;30.98;;;12.98;;
35644;SDS011;21764;52.042;6.830;2023-07-13T23:14:37;21.65;;;12.95;;
35644;SDS011;21764;52.042;6.830;2023-07-13T23:19:38;19.33;;;11.68;;
35644;SDS011;21764;52.042;6.830;2023-07-13T23:24:39;21.70;;;12.13;;
35644;SDS011;21764;52.042;6.830;2023-07-13T23:29:39;20.35;;;11.75;;
35644;SDS011;21764;52.042;6.830;2023-07-13T23:34:40;15.77;;;11.77;;
35644;SDS011;21764;52.042;6.830;2023-07-13T23:39:41;19.95;;;12.90;;
35644;SDS011;21764;52.042;6.830;2023-07-13T23:44:41;20.23;;;13.13;;
35644;SDS011;21764;52.042;6.830;2023-07-13T23:49:42;21.23;;;12.82;;
35644;SDS011;21764;52.042;6.830;2023-07-13T23:54:43;20.52;;;13.52;;
35644;SDS011;21764;52.042;6.830;2023-07-13T23:59:44;19.38;;;12.25;;
